Somerset, KY

2:53 PM EST on February 28, 2015 (GMT -0500)
Wastewater plant | Change Station
CLOSE
Current Station
Personal Weather Station
Location: Somerset, KY
Elevation: 791 ft
Nearby Weather Stations

Elev 791 ft 37.04 °N, 84.60 °W | Updated 13 minutes ago

Mostly Cloudy
Mostly Cloudy
49.6 °F
Feels Like 50 °F
N
2.2
Wind Variable Wind from ENE

Today
High -- | Low -- °F
--% Chance of Precip.
Yesterday
High -- | Low -- °F
Precip. -- in
7:10 AM 6:31 PM
Waxing Gibbous, 79% visible
Pressure 30.55 in
Visibility 10.0 miles
Clouds Mostly Cloudy 7000 ft
Windchill 50 °F
Dew Point 20 °F
Humidity 31%
Rainfall 0.00 in
Snow Depth Not available.
UV 3 out of 12
Pollen .60 out of 12
Air Quality Not available.
Flu Activity Not available.
METAR KSME 281935Z AUTO 00000KT 10SM BKN070 04/M07 A3055 RMK AO2

More Conditions Fewer Conditions

Pressure 30.55 in
Visibility 10.0 miles
Clouds Mostly Cloudy 7000 ft
Windchill 50 °F
Dew Point 20 °F
Humidity 31%
Rainfall 0.00 in
Snow Depth Not available.
UV 3 out of 12
Pollen .60 out of 12
Air Quality Not available.
Flu Activity Not available.
METAR KSME 281935Z AUTO 00000KT 10SM BKN070 04/M07 A3055 RMK AO2

More Conditions Fewer Conditions

10-Day Weather Forecast

Almanac

Astronomy

Feb. 28, 2015 Rise Set
Actual Time
Civil Twilight
Nautical Twilight
Astronomical Twilight
Moon
Length of Visible Light
Length of Day
Tomorrow will be .
, % of the Moon is Illuminated

Today's Extremes

State Highs State Lows

Community

WunderPhotos

Upload Photos

1,801,125 photos uploaded!

WunderBlogs® & News

Nearby

Air Quality

  Air Quality AQ Index Pollutant
Not available.

Snow Depth

Station Depth Elevation

Earthquake Activity

City Distance Mag. Time & Date
Minimum magnitude displayed is 2.5.

Coastal Water Temperatures

Place Temperature

Nearby Weather Stations